Time;durP1;ratioP1;P1;durP2;ratioP2;P2;SDS_P1;SDS_P2;PMS_P1;PMS_P2;Temp;Humidity;BMP_temperature;BMP_pressure;BME280_temperature;BME280_humidity;BME280_pressure;Samples;Min_cycle;Max_cycle;Signal;HPM_P1;HPM_P2
2021/12/26 00:02:46;;;;;;;9.07;8.17;;;5.80;46.50;;;;;;10350386;28;20790;-72
2021/12/26 00:07:50;;;;;;;8.77;7.97;;;5.90;46.80;;;;;;10351985;28;20296;-72
2021/12/26 00:12:54;;;;;;;9.50;8.53;;;5.90;46.70;;;;;;10352754;28;20234;-72
2021/12/26 00:17:58;;;;;;;8.60;7.83;;;5.90;46.70;;;;;;10350278;28;20226;-72
2021/12/26 00:23:02;;;;;;;8.83;8.00;;;6.00;46.80;;;;;;10345988;28;20750;-72
2021/12/26 00:28:05;;;;;;;9.90;8.90;;;6.00;46.70;;;;;;10349957;28;20700;-72
2021/12/26 00:33:10;;;;;;;9.63;8.73;;;6.00;46.80;;;;;;10351243;28;20230;-72
2021/12/26 00:38:14;;;;;;;10.00;8.80;;;6.00;46.70;;;;;;10347953;28;20609;-72
2021/12/26 00:43:17;;;;;;;9.83;8.87;;;6.10;46.80;;;;;;10350852;28;20226;-72
2021/12/26 00:48:21;;;;;;;9.37;8.47;;;6.10;46.80;;;;;;10357355;28;20670;-72
2021/12/26 00:53:25;;;;;;;9.67;8.70;;;6.10;46.70;;;;;;10353618;28;20252;-72
2021/12/26 00:58:28;;;;;;;8.83;8.03;;;6.20;46.70;;;;;;10355170;28;20235;-72
2021/12/26 01:03:33;;;;;;;9.93;9.03;;;6.20;46.80;;;;;;10355038;28;20261;-71
2021/12/26 01:08:40;;;;;;;10.50;9.53;;;6.10;46.80;;;;;;10355233;28;20230;-72
2021/12/26 01:13:45;;;;;;;9.47;8.50;;;6.20;46.70;;;;;;10353980;28;20230;-72
2021/12/26 01:18:51;;;;;;;10.13;9.13;;;6.10;46.70;;;;;;10359695;28;20222;-72
2021/12/26 01:23:56;;;;;;;9.70;8.80;;;6.20;47.10;;;;;;10352566;28;20226;-72
2021/12/26 01:29:02;;;;;;;9.97;9.07;;;6.20;47.00;;;;;;10357546;28;20321;-72
2021/12/26 01:34:07;;;;;;;9.67;8.77;;;6.20;46.90;;;;;;10354412;28;20230;-72
2021/12/26 01:39:10;;;;;;;9.77;8.87;;;6.20;47.00;;;;;;10359008;28;20218;-72
2021/12/26 01:44:15;;;;;;;10.17;9.17;;;6.30;47.00;;;;;;10352628;28;20234;-72
2021/12/26 01:49:23;;;;;;;9.90;8.90;;;6.30;46.90;;;;;;10351041;28;20225;-72
2021/12/26 01:54:32;;;;;;;9.33;8.43;;;6.30;47.00;;;;;;10355114;28;20235;-72
2021/12/26 01:59:35;;;;;;;8.67;7.87;;;6.30;46.90;;;;;;10354352;28;20222;-72
2021/12/26 02:04:41;;;;;;;7.73;7.03;;;6.40;47.00;;;;;;10348206;28;20231;-72
2021/12/26 02:09:44;;;;;;;7.43;6.83;;;6.30;47.00;;;;;;10351028;28;20227;-72
2021/12/26 02:14:47;;;;;;;7.17;6.57;;;6.40;46.90;;;;;;10358799;28;20234;-72
2021/12/26 02:19:54;;;;;;;7.23;6.57;;;6.40;46.90;;;;;;10353483;28;20222;-77
2021/12/26 02:25:14;;;;;;;6.57;6.07;;;6.40;47.10;;;;;;10355760;28;20237;-77
2021/12/26 02:30:17;;;;;;;6.60;6.10;;;6.40;47.00;;;;;;10353346;28;20260;-77
2021/12/26 02:35:23;;;;;;;6.83;6.23;;;6.40;47.10;;;;;;10351612;28;20225;-78
2021/12/26 02:40:26;;;;;;;6.73;6.23;;;6.40;47.20;;;;;;10354924;28;20237;-77
2021/12/26 02:45:31;;;;;;;6.33;5.73;;;6.40;47.00;;;;;;10355089;28;20226;-77
2021/12/26 02:50:38;;;;;;;6.47;5.87;;;6.40;46.90;;;;;;10351029;28;20756;-77
2021/12/26 02:55:41;;;;;;;6.23;5.73;;;6.40;47.10;;;;;;10351708;28;20238;-77
2021/12/26 03:00:47;;;;;;;6.43;5.93;;;6.50;47.10;;;;;;10350033;28;20223;-77
2021/12/26 03:05:58;;;;;;;6.70;6.10;;;6.50;47.00;;;;;;10353005;28;20336;-77
2021/12/26 03:11:01;;;;;;;6.93;6.33;;;6.50;47.20;;;;;;10348118;28;20233;-78
2021/12/26 03:16:05;;;;;;;7.20;6.60;;;6.50;47.00;;;;;;10353572;28;20861;-77
2021/12/26 03:21:09;;;;;;;6.73;6.17;;;6.50;47.00;;;;;;10354982;28;20237;-77
2021/12/26 03:26:13;;;;;;;6.50;6.00;;;6.60;47.00;;;;;;10354874;28;20230;-77
2021/12/26 03:31:16;;;;;;;7.00;6.40;;;6.60;47.00;;;;;;10356907;28;20596;-77
2021/12/26 03:36:20;;;;;;;7.07;6.47;;;6.60;47.10;;;;;;10358019;28;20230;-77
2021/12/26 03:41:23;;;;;;;6.30;5.80;;;6.60;47.10;;;;;;10349876;28;20698;-77
2021/12/26 03:46:31;;;;;;;5.67;5.17;;;6.60;46.90;;;;;;10347444;28;20258;-77
2021/12/26 03:51:36;;;;;;;5.83;5.20;;;6.60;46.70;;;;;;10350031;28;20582;-77
2021/12/26 03:56:39;;;;;;;5.50;5.10;;;6.50;46.70;;;;;;10349463;28;20226;-77
2021/12/26 04:01:42;;;;;;;6.10;5.60;;;6.50;46.70;;;;;;10348101;28;20234;-77
2021/12/26 04:06:47;;;;;;;6.93;6.33;;;6.40;46.80;;;;;;10347291;28;20255;-78
2021/12/26 04:11:50;;;;;;;6.53;6.00;;;6.50;46.90;;;;;;10349790;28;20237;-77
2021/12/26 04:16:54;;;;;;;6.20;5.70;;;6.40;46.80;;;;;;10350426;28;20230;-77
2021/12/26 04:21:58;;;;;;;6.57;6.07;;;6.50;46.70;;;;;;10350054;28;20218;-77
2021/12/26 04:27:01;;;;;;;6.27;5.77;;;6.40;46.70;;;;;;10343494;28;20223;-73
2021/12/26 04:32:06;;;;;;;6.03;5.53;;;6.40;46.70;;;;;;10347339;28;20702;-77
2021/12/26 04:37:11;;;;;;;5.33;4.83;;;6.40;46.80;;;;;;10349914;28;20237;-78
2021/12/26 04:42:14;;;;;;;5.43;5.03;;;6.40;46.70;;;;;;10348448;28;20249;-77
2021/12/26 04:47:17;;;;;;;5.57;5.07;;;6.30;46.80;;;;;;10348951;28;20226;-77
2021/12/26 04:52:22;;;;;;;5.50;5.00;;;6.30;46.50;;;;;;10350668;28;20223;-78
2021/12/26 04:57:25;;;;;;;5.97;5.47;;;6.30;46.50;;;;;;10348608;28;20233;-78
2021/12/26 05:02:29;;;;;;;6.23;5.63;;;6.20;46.50;;;;;;10348674;28;20237;-78
2021/12/26 05:07:34;;;;;;;6.27;5.50;;;6.10;46.60;;;;;;10346545;28;20242;-77
2021/12/26 05:12:37;;;;;;;5.47;5.03;;;6.10;46.90;;;;;;10344580;28;20281;-77
2021/12/26 05:17:41;;;;;;;5.70;5.20;;;6.00;46.90;;;;;;10350158;28;20227;-77
2021/12/26 05:22:46;;;;;;;5.77;5.27;;;6.00;46.70;;;;;;10349136;28;20226;-78
2021/12/26 05:27:50;;;;;;;5.53;5.03;;;6.00;46.70;;;;;;10348059;28;20246;-77
2021/12/26 05:32:53;;;;;;;5.30;4.87;;;6.00;46.70;;;;;;10352109;28;20227;-77
2021/12/26 05:37:58;;;;;;;5.40;4.90;;;6.00;46.70;;;;;;10353883;28;20234;-78
2021/12/26 05:43:01;;;;;;;5.10;4.70;;;6.00;46.90;;;;;;10355696;28;20214;-77
2021/12/26 05:48:05;;;;;;;5.83;5.33;;;6.00;46.70;;;;;;10356974;28;20225;-77
2021/12/26 05:53:09;;;;;;;5.17;4.77;;;6.00;46.70;;;;;;10354136;28;20600;-77
2021/12/26 05:58:13;;;;;;;5.33;4.93;;;6.00;46.70;;;;;;10353899;28;20700;-77
2021/12/26 06:03:16;;;;;;;5.80;5.30;;;6.00;46.70;;;;;;10350539;28;20226;-78
2021/12/26 06:08:20;;;;;;;5.87;5.37;;;6.00;46.60;;;;;;10353178;28;20227;-78
2021/12/26 06:13:24;;;;;;;5.70;5.20;;;6.10;46.50;;;;;;10353148;28;20741;-78
2021/12/26 06:18:27;;;;;;;5.50;5.00;;;6.10;46.50;;;;;;10356131;28;20226;-78
2021/12/26 06:23:31;;;;;;;5.77;5.27;;;6.00;46.70;;;;;;10353907;28;20237;-77
2021/12/26 06:28:34;;;;;;;5.33;4.93;;;6.10;46.80;;;;;;10354354;28;20647;-78
2021/12/26 06:33:38;;;;;;;5.80;5.30;;;6.20;46.80;;;;;;10352471;28;20235;-78
2021/12/26 06:38:44;;;;;;;5.30;4.90;;;6.20;46.80;;;;;;10354778;28;20243;-77
2021/12/26 06:43:47;;;;;;;5.13;4.73;;;6.20;46.40;;;;;;10356518;28;20590;-78
2021/12/26 06:48:50;;;;;;;5.47;5.07;;;6.30;46.40;;;;;;10348364;28;20222;-78
2021/12/26 06:53:55;;;;;;;5.77;5.27;;;6.20;46.10;;;;;;10355805;28;20710;-78
2021/12/26 06:58:58;;;;;;;5.87;5.37;;;6.20;46.50;;;;;;10350599;28;20722;-78
2021/12/26 07:04:02;;;;;;;6.13;5.63;;;6.20;46.60;;;;;;10356921;28;20225;-73
2021/12/26 07:09:07;;;;;;;5.73;5.23;;;6.20;46.80;;;;;;10351660;28;20769;-77
2021/12/26 07:14:10;;;;;;;6.27;5.77;;;6.20;46.60;;;;;;10351162;28;20234;-78
2021/12/26 07:19:14;;;;;;;5.90;5.40;;;6.30;46.50;;;;;;10351218;28;20302;-78
2021/12/26 07:24:18;;;;;;;5.27;4.87;;;6.30;46.20;;;;;;10350307;28;20230;-77
2021/12/26 07:29:21;;;;;;;5.73;5.23;;;6.20;46.30;;;;;;10352028;28;20242;-77
2021/12/26 07:34:24;;;;;;;5.87;5.37;;;6.20;46.30;;;;;;10354676;28;20234;-77
2021/12/26 07:39:29;;;;;;;5.57;5.17;;;6.20;46.30;;;;;;10352693;28;20230;-77
2021/12/26 07:44:32;;;;;;;6.27;5.77;;;6.20;46.30;;;;;;10347249;28;20234;-77
2021/12/26 07:49:35;;;;;;;5.57;5.17;;;6.20;46.30;;;;;;10350845;28;20229;-77
2021/12/26 07:54:40;;;;;;;5.30;4.90;;;6.20;46.20;;;;;;10347841;28;20719;-77
2021/12/26 07:59:43;;;;;;;5.43;5.03;;;6.20;46.30;;;;;;10348021;28;20219;-78
2021/12/26 08:04:47;;;;;;;5.33;4.93;;;6.20;46.70;;;;;;10344613;28;20878;-78
2021/12/26 08:09:51;;;;;;;5.43;5.03;;;6.20;46.70;;;;;;10349030;28;20234;-77
2021/12/26 08:14:55;;;;;;;6.03;5.53;;;6.20;46.70;;;;;;10348049;28;20218;-77
2021/12/26 08:19:58;;;;;;;6.50;6.00;;;6.30;46.70;;;;;;10350773;28;20226;-78
2021/12/26 08:25:03;;;;;;;6.73;6.23;;;6.30;46.70;;;;;;10347276;28;20219;-77
2021/12/26 08:30:08;;;;;;;6.83;6.03;;;6.30;46.40;;;;;;10352207;28;20230;-77
2021/12/26 08:35:11;;;;;;;6.77;6.07;;;6.30;46.20;;;;;;10346277;28;20222;-77
2021/12/26 08:40:16;;;;;;;6.83;6.27;;;6.30;46.30;;;;;;10354056;28;20234;-77
2021/12/26 08:45:19;;;;;;;6.63;6.03;;;6.30;46.40;;;;;;10352563;28;20222;-77
2021/12/26 08:50:37;;;;;;;6.37;5.87;;;6.20;46.40;;;;;;10346549;28;20564;-78
2021/12/26 08:55:42;;;;;;;7.07;6.47;;;6.20;46.50;;;;;;10351364;28;20230;-78
2021/12/26 09:00:45;;;;;;;5.83;5.37;;;6.20;46.40;;;;;;10346088;28;20223;-78
2021/12/26 09:05:48;;;;;;;6.37;5.80;;;6.30;46.60;;;;;;10354296;28;20231;-78
2021/12/26 09:10:53;;;;;;;6.27;5.77;;;6.30;46.50;;;;;;10356983;28;20225;-78
2021/12/26 09:15:56;;;;;;;6.23;5.73;;;6.30;46.50;;;;;;10356463;28;20741;-78
2021/12/26 09:21:00;;;;;;;6.33;5.73;;;6.30;46.30;;;;;;10357400;28;20301;-77
2021/12/26 09:26:04;;;;;;;6.30;5.70;;;6.30;46.20;;;;;;10357367;28;20762;-78
2021/12/26 09:31:07;;;;;;;7.43;6.73;;;6.20;46.20;;;;;;10357947;28;20558;-77
2021/12/26 09:36:11;;;;;;;6.43;5.90;;;6.20;46.30;;;;;;10354181;28;20721;-77
2021/12/26 09:41:15;;;;;;;6.90;6.27;;;6.20;46.40;;;;;;10352210;28;20219;-77
2021/12/26 09:46:19;;;;;;;6.07;5.47;;;6.20;46.50;;;;;;10354677;28;20234;-77
2021/12/26 09:51:22;;;;;;;6.87;6.27;;;6.20;46.50;;;;;;10355751;28;20292;-77
2021/12/26 09:56:26;;;;;;;6.30;5.70;;;6.20;46.40;;;;;;10357263;28;20230;-78
2021/12/26 10:01:33;;;;;;;6.03;5.53;;;6.10;46.50;;;;;;10349958;28;20233;-77
2021/12/26 10:06:36;;;;;;;6.80;6.20;;;6.10;46.70;;;;;;10354022;28;20238;-78
2021/12/26 10:11:43;;;;;;;6.50;5.90;;;6.20;46.70;;;;;;10358128;28;20226;-77
2021/12/26 10:16:49;;;;;;;6.30;5.80;;;6.10;46.50;;;;;;10347689;28;20226;-78
2021/12/26 10:21:54;;;;;;;6.30;5.77;;;6.20;46.80;;;;;;10356394;28;20229;-77
2021/12/26 10:27:00;;;;;;;6.40;5.80;;;6.20;46.80;;;;;;10358672;28;20740;-77
2021/12/26 10:32:08;;;;;;;6.40;5.83;;;6.30;46.80;;;;;;10355088;28;20225;-77
2021/12/26 10:37:15;;;;;;;6.80;6.20;;;6.30;46.80;;;;;;10356675;28;20241;-77
2021/12/26 10:42:22;;;;;;;6.10;5.60;;;6.40;46.60;;;;;;10359341;28;20450;-78
2021/12/26 10:47:28;;;;;;;6.63;6.03;;;6.40;46.70;;;;;;10355086;28;20237;-78
2021/12/26 10:52:34;;;;;;;7.07;6.47;;;6.50;46.70;;;;;;10353258;28;20226;-78
2021/12/26 10:57:40;;;;;;;7.03;6.43;;;6.50;46.70;;;;;;10355466;28;20594;-78
2021/12/26 11:02:46;;;;;;;7.17;6.47;;;6.50;46.40;;;;;;10351424;28;20230;-78
2021/12/26 11:07:53;;;;;;;10.40;9.30;;;6.60;46.60;;;;;;10353162;28;20234;-78
2021/12/26 11:13:00;;;;;;;8.03;7.07;;;6.50;46.50;;;;;;10350795;28;20644;-78
2021/12/26 11:18:06;;;;;;;12.90;11.53;;;6.60;46.70;;;;;;10352879;28;20568;-77
2021/12/26 11:23:11;;;;;;;8.67;7.80;;;6.60;46.60;;;;;;10350610;28;20230;-78
2021/12/26 11:28:22;;;;;;;8.23;7.43;;;6.60;46.70;;;;;;10349142;28;20232;-78
2021/12/26 11:33:26;;;;;;;8.90;8.00;;;6.60;46.80;;;;;;10351682;28;20655;-78
2021/12/26 11:38:30;;;;;;;8.53;7.73;;;6.60;46.90;;;;;;10355006;28;20246;-78
2021/12/26 11:43:58;;;;;;;6.83;6.23;;;6.60;47.00;;;;;;10350834;28;20219;-78
2021/12/26 11:49:27;;;;;;;8.63;7.73;;;6.60;47.20;;;;;;10343381;28;20226;-78
2021/12/26 11:54:58;;;;;;;9.00;8.10;;;6.70;47.10;;;;;;10342947;28;20706;-77
2021/12/26 12:00:09;;;;;;;8.23;7.47;;;6.60;46.90;;;;;;10331116;28;20317;-77
2021/12/26 12:05:22;;;;;;;8.30;7.50;;;6.60;47.00;;;;;;10352001;28;20311;-78
2021/12/26 12:10:42;;;;;;;8.37;7.57;;;6.70;47.10;;;;;;10350698;28;20237;-78
2021/12/26 12:15:55;;;;;;;8.47;7.67;;;6.70;46.90;;;;;;10353918;28;20719;-78
2021/12/26 12:21:12;;;;;;;8.37;7.57;;;6.70;46.90;;;;;;10351170;28;20233;-78
2021/12/26 12:26:41;;;;;;;8.20;7.50;;;6.60;46.90;;;;;;10351034;28;20572;-77
2021/12/26 12:31:46;;;;;;;9.27;8.37;;;6.60;47.10;;;;;;10349978;28;20230;-78
2021/12/26 12:37:01;;;;;;;8.47;7.67;;;6.60;46.90;;;;;;10352739;28;21108;-78
2021/12/26 12:42:05;;;;;;;8.70;7.90;;;6.50;47.00;;;;;;10354475;28;20696;-78
2021/12/26 12:47:14;;;;;;;7.87;7.17;;;6.50;47.10;;;;;;10360907;28;20241;-78
2021/12/26 12:52:36;;;;;;;9.10;8.30;;;6.60;47.00;;;;;;10357949;28;20226;-78
2021/12/26 12:57:42;;;;;;;9.10;8.30;;;6.60;47.00;;;;;;10359266;28;20238;-78
2021/12/26 13:02:47;;;;;;;9.57;8.67;;;6.60;46.90;;;;;;10353055;28;20234;-78
2021/12/26 13:07:58;;;;;;;9.73;8.83;;;6.60;46.80;;;;;;10356785;28;20722;-78
2021/12/26 13:13:06;;;;;;;9.77;8.80;;;6.70;47.00;;;;;;10357210;28;20229;-78
2021/12/26 13:18:10;;;;;;;9.73;8.77;;;6.70;47.00;;;;;;10355253;28;20226;-78
2021/12/26 13:23:14;;;;;;;9.43;8.53;;;6.70;46.90;;;;;;10358544;28;20230;-78
2021/12/26 13:28:25;;;;;;;9.23;8.33;;;6.70;46.90;;;;;;10355283;28;20601;-78
2021/12/26 13:33:32;;;;;;;9.33;8.50;;;6.80;46.90;;;;;;10358994;28;20253;-78
2021/12/26 13:38:36;;;;;;;9.10;8.20;;;6.70;46.90;;;;;;10354679;28;20231;-78
2021/12/26 13:43:41;;;;;;;10.27;9.27;;;6.70;46.90;;;;;;10355373;28;20765;-77
2021/12/26 13:48:49;;;;;;;10.17;9.17;;;6.70;46.90;;;;;;10353834;28;20717;-78
2021/12/26 13:53:54;;;;;;;14.73;12.77;;;6.70;47.00;;;;;;10357328;28;20219;-78
2021/12/26 13:58:57;;;;;;;11.47;10.37;;;6.70;46.90;;;;;;10358597;28;20226;-78
2021/12/26 14:04:02;;;;;;;9.83;8.93;;;6.70;46.90;;;;;;10350711;28;20822;-77
2021/12/26 14:09:05;;;;;;;10.60;9.60;;;6.70;47.00;;;;;;10355458;28;20231;-77
2021/12/26 14:14:08;;;;;;;9.70;8.80;;;6.80;47.00;;;;;;10352506;28;20703;-77
2021/12/26 14:19:15;;;;;;;10.80;9.80;;;6.70;46.90;;;;;;10356732;28;20410;-77
2021/12/26 14:24:20;;;;;;;10.30;9.40;;;6.80;46.90;;;;;;10356562;28;20245;-78
2021/12/26 14:29:24;;;;;;;13.07;11.77;;;6.80;46.80;;;;;;10356014;28;20234;-77
2021/12/26 14:34:35;;;;;;;12.80;11.60;;;6.80;46.90;;;;;;10355387;28;20252;-78
2021/12/26 14:39:41;;;;;;;12.27;11.17;;;6.80;46.90;;;;;;10350198;28;20603;-77
2021/12/26 14:44:46;;;;;;;11.37;10.37;;;6.80;46.90;;;;;;10352957;28;20280;-77
2021/12/26 14:49:54;;;;;;;11.33;10.23;;;6.80;46.80;;;;;;10351060;28;20782;-77
2021/12/26 14:54:58;;;;;;;9.97;9.03;;;6.80;47.00;;;;;;10349254;28;20235;-77
2021/12/26 15:00:05;;;;;;;10.83;9.73;;;6.80;46.70;;;;;;10350485;28;20227;-74
2021/12/26 15:05:12;;;;;;;10.93;9.83;;;6.80;46.60;;;;;;10344317;28;20235;-77
2021/12/26 15:10:17;;;;;;;10.70;9.70;;;6.70;46.70;;;;;;10351917;28;20598;-78
2021/12/26 15:15:25;;;;;;;10.87;9.70;;;6.60;46.60;;;;;;10356414;28;20236;-78
2021/12/26 15:20:36;;;;;;;10.60;9.60;;;6.60;46.80;;;;;;10350502;28;20229;-78
2021/12/26 15:25:41;;;;;;;10.80;9.80;;;6.60;46.90;;;;;;10351842;28;20619;-78
2021/12/26 15:30:47;;;;;;;10.43;9.43;;;6.50;46.90;;;;;;10355868;28;20595;-78
2021/12/26 15:35:52;;;;;;;10.40;9.40;;;6.50;46.80;;;;;;10354978;28;20230;-78
2021/12/26 15:40:55;;;;;;;11.20;10.00;;;6.50;47.50;;;;;;10351102;28;20226;-78
2021/12/26 15:45:58;;;;;;;10.77;9.30;;;6.50;46.90;;;;;;10352598;28;20227;-78
2021/12/26 15:51:03;;;;;;;10.47;9.30;;;6.40;46.70;;;;;;10347854;28;20647;-78
2021/12/26 15:56:06;;;;;;;12.37;9.70;;;6.40;46.80;;;;;;10350995;28;20613;-77
2021/12/26 16:01:10;;;;;;;9.37;8.57;;;6.30;47.50;;;;;;10347983;28;20610;-78
2021/12/26 16:06:15;;;;;;;11.93;10.73;;;6.30;47.00;;;;;;10351907;28;20246;-77
2021/12/26 16:11:18;;;;;;;11.77;10.57;;;6.30;47.00;;;;;;10354383;28;20672;-78
2021/12/26 16:16:21;;;;;;;12.53;11.23;;;6.30;46.90;;;;;;10348777;28;20244;-78
2021/12/26 16:21:27;;;;;;;12.03;10.77;;;6.20;47.10;;;;;;10351321;28;20241;-78
2021/12/26 16:26:30;;;;;;;10.73;9.67;;;6.30;47.10;;;;;;10349090;28;20234;-78
2021/12/26 16:31:33;;;;;;;10.63;9.07;;;6.30;47.20;;;;;;10350983;28;20253;-78
2021/12/26 16:36:38;;;;;;;9.37;8.47;;;6.30;47.10;;;;;;10353300;28;20671;-78
2021/12/26 16:41:41;;;;;;;9.97;9.07;;;6.30;47.10;;;;;;10353359;28;20241;-77
2021/12/26 16:46:44;;;;;;;10.80;9.30;;;6.40;47.00;;;;;;10347629;28;20230;-78
2021/12/26 16:51:49;;;;;;;11.03;9.83;;;6.40;46.90;;;;;;10349153;28;20241;-77
2021/12/26 16:56:52;;;;;;;11.07;9.93;;;6.40;46.80;;;;;;10350793;28;20230;-78
2021/12/26 17:01:56;;;;;;;11.23;10.03;;;6.30;46.80;;;;;;10351356;28;20215;-78
2021/12/26 17:07:01;;;;;;;11.37;10.17;;;6.30;46.90;;;;;;10345604;28;20596;-78
2021/12/26 17:12:04;;;;;;;10.70;9.57;;;6.30;46.90;;;;;;10350230;28;20596;-77
2021/12/26 17:17:07;;;;;;;11.20;10.03;;;6.30;46.90;;;;;;10349785;28;20231;-77
2021/12/26 17:22:12;;;;;;;20.30;18.27;;;6.30;47.00;;;;;;10347565;28;20715;-77
2021/12/26 17:27:19;;;;;;;17.47;15.43;;;6.30;46.90;;;;;;10349692;28;20528;-78
2021/12/26 17:32:24;;;;;;;11.80;10.47;;;6.30;47.00;;;;;;10359318;28;20233;-77
2021/12/26 17:37:29;;;;;;;13.70;12.30;;;6.40;46.90;;;;;;10356260;28;20690;-77
2021/12/26 17:42:32;;;;;;;13.07;11.67;;;6.30;46.70;;;;;;10356757;28;20231;-77
2021/12/26 17:47:35;;;;;;;13.13;11.57;;;6.30;46.70;;;;;;10360171;28;20241;-78
2021/12/26 17:52:41;;;;;;;14.83;13.43;;;6.20;46.80;;;;;;10355682;28;20227;-78
2021/12/26 17:57:44;;;;;;;13.60;12.17;;;6.20;47.20;;;;;;10354724;28;20724;-78
2021/12/26 18:02:48;;;;;;;12.07;10.93;;;6.20;47.10;;;;;;10356424;28;20223;-78
2021/12/26 18:07:53;;;;;;;14.33;12.50;;;6.20;47.10;;;;;;10353707;28;20238;-77
2021/12/26 18:12:56;;;;;;;12.87;11.53;;;6.20;47.10;;;;;;10356724;28;20762;-78
2021/12/26 18:17:59;;;;;;;12.90;11.50;;;6.20;47.10;;;;;;10350755;28;20761;-78
2021/12/26 18:23:05;;;;;;;11.87;10.67;;;6.20;47.30;;;;;;10357506;28;20589;-76
2021/12/26 18:28:08;;;;;;;16.73;15.13;;;6.20;47.40;;;;;;10355294;28;20234;-77
2021/12/26 18:33:11;;;;;;;12.43;11.13;;;6.30;47.20;;;;;;10354508;28;20627;-77
2021/12/26 18:38:16;;;;;;;12.47;11.27;;;6.30;47.10;;;;;;10354834;28;20238;-77
2021/12/26 18:43:19;;;;;;;14.10;12.67;;;6.30;47.10;;;;;;10342441;28;20766;-78
2021/12/26 18:48:23;;;;;;;13.40;12.07;;;6.30;47.00;;;;;;10354876;28;20297;-77
2021/12/26 18:53:28;;;;;;;12.70;11.40;;;6.30;47.20;;;;;;10351800;28;20230;-77
2021/12/26 18:58:31;;;;;;;11.77;10.57;;;6.30;47.20;;;;;;10357040;28;20240;-78
2021/12/26 19:03:35;;;;;;;14.90;13.43;;;6.30;47.20;;;;;;10352820;28;20232;-78
2021/12/26 19:08:39;;;;;;;12.23;10.77;;;6.40;47.20;;;;;;10352005;28;20230;-78
2021/12/26 19:13:43;;;;;;;12.77;11.07;;;6.30;47.10;;;;;;10352440;28;20230;-78
2021/12/26 19:18:48;;;;;;;12.17;10.27;;;6.30;47.10;;;;;;10353275;28;20227;-78
2021/12/26 19:23:53;;;;;;;17.50;13.73;;;6.30;47.00;;;;;;10351386;28;20254;-78
2021/12/26 19:28:57;;;;;;;15.13;13.53;;;6.30;47.10;;;;;;10348178;28;20241;-78
2021/12/26 19:34:00;;;;;;;21.00;19.03;;;6.30;47.20;;;;;;10350220;28;20242;-77
2021/12/26 19:39:04;;;;;;;18.90;16.90;;;6.30;47.10;;;;;;10354386;28;20595;-77
2021/12/26 19:44:10;;;;;;;12.40;11.10;;;6.40;47.20;;;;;;10353007;28;20241;-78
2021/12/26 19:49:13;;;;;;;11.33;10.13;;;6.40;47.00;;;;;;10351429;28;20219;-77
2021/12/26 19:54:18;;;;;;;11.03;9.93;;;6.40;47.00;;;;;;10349567;28;20246;-78
2021/12/26 19:59:21;;;;;;;11.73;10.17;;;6.40;47.00;;;;;;10349068;28;20222;-77
2021/12/26 20:04:26;;;;;;;11.90;10.70;;;6.30;47.10;;;;;;10348288;28;20751;-78
2021/12/26 20:09:31;;;;;;;12.10;10.87;;;6.40;47.10;;;;;;10352287;28;20230;-77
2021/12/26 20:14:34;;;;;;;14.83;13.23;;;6.30;47.00;;;;;;10354585;28;20748;-78
2021/12/26 20:19:37;;;;;;;18.13;15.63;;;6.30;47.00;;;;;;10351444;28;20246;-70
2021/12/26 20:24:42;;;;;;;17.30;15.53;;;6.30;47.00;;;;;;10352024;28;20236;-70
2021/12/26 20:29:46;;;;;;;13.43;12.10;;;6.20;47.20;;;;;;10347113;28;20252;-70
2021/12/26 20:34:49;;;;;;;13.20;11.90;;;6.30;47.20;;;;;;10353889;28;20241;-70
2021/12/26 20:39:53;;;;;;;12.20;10.90;;;6.30;47.20;;;;;;10349074;28;20238;-70
2021/12/26 20:44:56;;;;;;;11.17;10.17;;;6.20;47.20;;;;;;10357336;28;20241;-70
2021/12/26 20:50:02;;;;;;;11.70;10.63;;;6.30;47.30;;;;;;10347692;28;20233;-70
2021/12/26 20:55:08;;;;;;;11.43;10.33;;;6.30;47.30;;;;;;10345338;28;20234;-70
2021/12/26 21:00:13;;;;;;;11.87;10.73;;;6.30;47.20;;;;;;10351008;28;20226;-70
2021/12/26 21:05:17;;;;;;;13.50;12.20;;;6.40;47.20;;;;;;10351868;28;20233;-70
2021/12/26 21:10:22;;;;;;;14.43;12.93;;;6.40;47.10;;;;;;10357156;28;20245;-70
2021/12/26 21:15:25;;;;;;;12.03;10.83;;;6.40;47.20;;;;;;10357513;28;20316;-70
2021/12/26 21:20:32;;;;;;;12.80;11.60;;;6.40;47.20;;;;;;10356161;28;20703;-70
2021/12/26 21:25:37;;;;;;;12.80;11.60;;;6.50;47.10;;;;;;10356376;28;20601;-70
2021/12/26 21:30:41;;;;;;;12.83;11.57;;;6.50;47.10;;;;;;10357385;28;20237;-70
2021/12/26 21:35:44;;;;;;;12.90;11.63;;;6.50;47.00;;;;;;10354288;28;20235;-70
2021/12/26 21:40:49;;;;;;;12.67;11.47;;;6.50;47.10;;;;;;10354578;28;20252;-70
2021/12/26 21:45:56;;;;;;;13.53;12.20;;;6.40;46.90;;;;;;10355918;28;20249;-71
2021/12/26 21:51:00;;;;;;;13.30;11.97;;;6.40;47.10;;;;;;10348147;28;20614;-70
2021/12/26 21:56:05;;;;;;;13.43;11.37;;;6.40;47.20;;;;;;10350069;28;20232;-70
2021/12/26 22:01:08;;;;;;;13.67;12.37;;;6.30;47.00;;;;;;10356982;28;20824;-70
2021/12/26 22:06:12;;;;;;;13.17;11.87;;;6.30;47.10;;;;;;10355344;28;20241;-70
2021/12/26 22:11:17;;;;;;;13.90;12.50;;;6.30;47.20;;;;;;10358199;28;20237;-70
2021/12/26 22:16:20;;;;;;;14.57;13.07;;;6.30;47.40;;;;;;10350484;28;20234;-70
2021/12/26 22:21:24;;;;;;;15.33;13.33;;;6.20;47.30;;;;;;10353533;28;20236;-70
2021/12/26 22:26:28;;;;;;;14.17;12.87;;;6.20;47.40;;;;;;10358725;28;20240;-70
2021/12/26 22:31:32;;;;;;;14.27;12.77;;;6.20;47.30;;;;;;10355909;28;20575;-70
2021/12/26 22:36:35;;;;;;;13.70;12.40;;;6.20;47.40;;;;;;10356049;28;20230;-70
2021/12/26 22:41:40;;;;;;;14.50;13.03;;;6.20;47.50;;;;;;10354333;28;20242;-70
2021/12/26 22:46:43;;;;;;;14.20;12.80;;;6.20;47.60;;;;;;10354098;28;20234;-70
2021/12/26 22:51:46;;;;;;;14.33;12.93;;;6.30;47.50;;;;;;10351197;28;20242;-70
2021/12/26 22:56:53;;;;;;;14.17;12.83;;;6.40;47.40;;;;;;10356704;28;23803;-70
2021/12/26 23:01:59;;;;;;;14.23;12.77;;;6.40;47.50;;;;;;10352592;28;20233;-70
2021/12/26 23:07:02;;;;;;;14.53;13.03;;;6.40;47.40;;;;;;10351080;28;20219;-71
2021/12/26 23:12:08;;;;;;;15.17;13.67;;;6.40;47.40;;;;;;10351255;28;20218;-70
2021/12/26 23:17:13;;;;;;;15.07;13.50;;;6.40;47.50;;;;;;10354437;28;20238;-70
2021/12/26 23:22:16;;;;;;;13.37;12.10;;;6.40;47.40;;;;;;10352025;28;20292;-70
2021/12/26 23:27:21;;;;;;;15.50;14.00;;;6.40;47.60;;;;;;10352662;28;20237;-70
2021/12/26 23:32:24;;;;;;;15.27;13.67;;;6.40;48.30;;;;;;10350639;28;20230;-70
2021/12/26 23:37:28;;;;;;;15.50;14.03;;;6.40;47.50;;;;;;10351747;28;20238;-70
2021/12/26 23:42:36;;;;;;;16.10;14.50;;;6.40;47.50;;;;;;10354869;28;20576;-70
2021/12/26 23:47:39;;;;;;;16.37;14.67;;;6.40;47.50;;;;;;10352949;28;20234;-70
2021/12/26 23:52:43;;;;;;;16.07;14.50;;;6.40;47.40;;;;;;10352566;28;20222;-70
2021/12/26 23:57:48;;;;;;;16.60;14.97;;;6.40;47.40;;;;;;10350628;28;20256;-70
